sensor_id;sensor_type;location;lat;lon;timestamp;P1;durP1;ratioP1;P2;durP2;ratioP2
78618;SDS011;67941;52.506;5.470;2023-07-09T00:02:23;5.75;;;2.78;;
78618;SDS011;67941;52.506;5.470;2023-07-09T00:04:53;3.15;;;1.48;;
78618;SDS011;67941;52.506;5.470;2023-07-09T00:07:27;4.45;;;2.25;;
78618;SDS011;67941;52.506;5.470;2023-07-09T00:09:58;4.55;;;2.50;;
78618;SDS011;67941;52.506;5.470;2023-07-09T00:12:28;3.72;;;1.70;;
78618;SDS011;67941;52.506;5.470;2023-07-09T00:14:57;4.70;;;2.85;;
78618;SDS011;67941;52.506;5.470;2023-07-09T00:17:26;4.45;;;2.03;;
78618;SDS011;67941;52.506;5.470;2023-07-09T00:20:01;4.28;;;1.92;;
78618;SDS011;67941;52.506;5.470;2023-07-09T00:22:36;5.03;;;2.97;;
78618;SDS011;67941;52.506;5.470;2023-07-09T00:25:07;4.28;;;2.33;;
78618;SDS011;67941;52.506;5.470;2023-07-09T00:27:39;4.70;;;2.53;;
78618;SDS011;67941;52.506;5.470;2023-07-09T00:30:13;3.67;;;2.08;;
78618;SDS011;67941;52.506;5.470;2023-07-09T00:32:45;4.50;;;2.28;;
78618;SDS011;67941;52.506;5.470;2023-07-09T00:35:17;4.38;;;1.77;;
78618;SDS011;67941;52.506;5.470;2023-07-09T00:37:46;4.40;;;1.75;;
78618;SDS011;67941;52.506;5.470;2023-07-09T00:40:17;3.90;;;1.73;;
78618;SDS011;67941;52.506;5.470;2023-07-09T00:42:48;4.53;;;2.45;;
78618;SDS011;67941;52.506;5.470;2023-07-09T00:45:19;4.50;;;1.63;;
78618;SDS011;67941;52.506;5.470;2023-07-09T00:47:51;5.00;;;2.58;;
78618;SDS011;67941;52.506;5.470;2023-07-09T00:50:29;3.35;;;1.83;;
78618;SDS011;67941;52.506;5.470;2023-07-09T00:53:09;2.58;;;1.15;;
78618;SDS011;67941;52.506;5.470;2023-07-09T00:55:49;4.53;;;1.98;;
78618;SDS011;67941;52.506;5.470;2023-07-09T00:58:24;5.05;;;2.50;;
78618;SDS011;67941;52.506;5.470;2023-07-09T01:00:55;5.40;;;2.35;;
78618;SDS011;67941;52.506;5.470;2023-07-09T01:03:29;5.32;;;2.55;;
78618;SDS011;67941;52.506;5.470;2023-07-09T01:06:04;4.38;;;2.63;;
78618;SDS011;67941;52.506;5.470;2023-07-09T01:08:34;5.63;;;2.53;;
78618;SDS011;67941;52.506;5.470;2023-07-09T01:11:13;2.90;;;1.35;;
78618;SDS011;67941;52.506;5.470;2023-07-09T01:13:46;3.30;;;1.42;;
78618;SDS011;67941;52.506;5.470;2023-07-09T01:16:16;3.28;;;1.65;;
78618;SDS011;67941;52.506;5.470;2023-07-09T01:18:47;3.97;;;1.85;;
78618;SDS011;67941;52.506;5.470;2023-07-09T01:21:19;3.00;;;1.30;;
78618;SDS011;67941;52.506;5.470;2023-07-09T01:23:48;4.97;;;2.47;;
78618;SDS011;67941;52.506;5.470;2023-07-09T01:26:22;4.68;;;2.17;;
78618;SDS011;67941;52.506;5.470;2023-07-09T01:28:53;4.38;;;1.52;;
78618;SDS011;67941;52.506;5.470;2023-07-09T01:31:23;4.03;;;2.55;;
78618;SDS011;67941;52.506;5.470;2023-07-09T01:33:52;5.55;;;2.35;;
78618;SDS011;67941;52.506;5.470;2023-07-09T01:36:23;8.35;;;2.38;;
78618;SDS011;67941;52.506;5.470;2023-07-09T01:38:54;3.40;;;1.50;;
78618;SDS011;67941;52.506;5.470;2023-07-09T01:41:24;7.05;;;1.88;;
78618;SDS011;67941;52.506;5.470;2023-07-09T01:43:53;4.13;;;2.25;;
78618;SDS011;67941;52.506;5.470;2023-07-09T01:46:23;6.10;;;3.08;;
78618;SDS011;67941;52.506;5.470;2023-07-09T01:48:53;3.42;;;1.88;;
78618;SDS011;67941;52.506;5.470;2023-07-09T01:51:25;2.55;;;1.38;;
78618;SDS011;67941;52.506;5.470;2023-07-09T01:53:54;4.05;;;1.83;;
78618;SDS011;67941;52.506;5.470;2023-07-09T01:56:25;4.68;;;2.67;;
78618;SDS011;67941;52.506;5.470;2023-07-09T01:58:54;4.85;;;1.80;;
78618;SDS011;67941;52.506;5.470;2023-07-09T02:01:26;3.72;;;1.90;;
78618;SDS011;67941;52.506;5.470;2023-07-09T02:03:55;3.83;;;1.85;;
78618;SDS011;67941;52.506;5.470;2023-07-09T02:06:27;3.53;;;2.25;;
78618;SDS011;67941;52.506;5.470;2023-07-09T02:08:57;2.42;;;1.27;;
78618;SDS011;67941;52.506;5.470;2023-07-09T02:11:26;5.40;;;2.75;;
78618;SDS011;67941;52.506;5.470;2023-07-09T02:13:55;3.83;;;1.90;;
78618;SDS011;67941;52.506;5.470;2023-07-09T02:16:23;4.53;;;1.88;;
78618;SDS011;67941;52.506;5.470;2023-07-09T02:18:52;1.83;;;1.23;;
78618;SDS011;67941;52.506;5.470;2023-07-09T02:21:21;3.15;;;1.70;;
78618;SDS011;67941;52.506;5.470;2023-07-09T02:23:57;4.15;;;2.17;;
78618;SDS011;67941;52.506;5.470;2023-07-09T02:26:26;5.25;;;2.15;;
78618;SDS011;67941;52.506;5.470;2023-07-09T02:28:55;3.67;;;1.80;;
78618;SDS011;67941;52.506;5.470;2023-07-09T02:31:24;2.22;;;1.42;;
78618;SDS011;67941;52.506;5.470;2023-07-09T02:33:55;4.57;;;1.80;;
78618;SDS011;67941;52.506;5.470;2023-07-09T02:36:24;2.08;;;1.10;;
78618;SDS011;67941;52.506;5.470;2023-07-09T02:38:53;2.97;;;1.73;;
78618;SDS011;67941;52.506;5.470;2023-07-09T02:41:24;4.28;;;2.08;;
78618;SDS011;67941;52.506;5.470;2023-07-09T02:43:54;3.63;;;2.10;;
78618;SDS011;67941;52.506;5.470;2023-07-09T02:46:23;5.55;;;1.70;;
78618;SDS011;67941;52.506;5.470;2023-07-09T02:48:52;4.80;;;2.00;;
78618;SDS011;67941;52.506;5.470;2023-07-09T02:51:21;2.55;;;1.40;;
78618;SDS011;67941;52.506;5.470;2023-07-09T02:53:52;3.72;;;2.00;;
78618;SDS011;67941;52.506;5.470;2023-07-09T02:56:22;6.57;;;2.15;;
78618;SDS011;67941;52.506;5.470;2023-07-09T02:58:53;4.63;;;1.80;;
78618;SDS011;67941;52.506;5.470;2023-07-09T03:01:22;4.65;;;2.10;;
78618;SDS011;67941;52.506;5.470;2023-07-09T03:03:53;2.83;;;1.73;;
78618;SDS011;67941;52.506;5.470;2023-07-09T03:06:23;3.63;;;1.25;;
78618;SDS011;67941;52.506;5.470;2023-07-09T03:08:52;3.95;;;1.90;;
78618;SDS011;67941;52.506;5.470;2023-07-09T03:11:22;3.65;;;1.67;;
78618;SDS011;67941;52.506;5.470;2023-07-09T03:13:53;4.78;;;2.15;;
78618;SDS011;67941;52.506;5.470;2023-07-09T03:16:22;2.08;;;1.45;;
78618;SDS011;67941;52.506;5.470;2023-07-09T03:18:51;3.35;;;1.38;;
78618;SDS011;67941;52.506;5.470;2023-07-09T03:21:20;4.82;;;2.10;;
78618;SDS011;67941;52.506;5.470;2023-07-09T03:23:49;3.92;;;2.15;;
78618;SDS011;67941;52.506;5.470;2023-07-09T03:26:18;3.10;;;1.52;;
78618;SDS011;67941;52.506;5.470;2023-07-09T03:28:50;4.68;;;1.92;;
78618;SDS011;67941;52.506;5.470;2023-07-09T03:31:19;4.45;;;2.03;;
78618;SDS011;67941;52.506;5.470;2023-07-09T03:33:48;5.28;;;2.55;;
78618;SDS011;67941;52.506;5.470;2023-07-09T03:36:19;3.25;;;1.50;;
78618;SDS011;67941;52.506;5.470;2023-07-09T03:38:48;4.07;;;2.20;;
78618;SDS011;67941;52.506;5.470;2023-07-09T03:41:17;5.28;;;2.45;;
78618;SDS011;67941;52.506;5.470;2023-07-09T03:43:46;5.53;;;2.47;;
78618;SDS011;67941;52.506;5.470;2023-07-09T03:46:18;4.40;;;2.17;;
78618;SDS011;67941;52.506;5.470;2023-07-09T03:48:47;4.28;;;2.20;;
78618;SDS011;67941;52.506;5.470;2023-07-09T03:51:16;4.63;;;2.42;;
78618;SDS011;67941;52.506;5.470;2023-07-09T03:53:45;3.97;;;1.70;;
78618;SDS011;67941;52.506;5.470;2023-07-09T03:56:14;4.35;;;2.33;;
78618;SDS011;67941;52.506;5.470;2023-07-09T03:58:42;2.05;;;1.25;;
78618;SDS011;67941;52.506;5.470;2023-07-09T04:01:11;3.72;;;1.23;;
78618;SDS011;67941;52.506;5.470;2023-07-09T04:03:44;3.42;;;1.35;;
78618;SDS011;67941;52.506;5.470;2023-07-09T04:06:13;4.38;;;2.35;;
78618;SDS011;67941;52.506;5.470;2023-07-09T04:08:42;5.15;;;2.03;;
78618;SDS011;67941;52.506;5.470;2023-07-09T04:11:11;4.32;;;2.42;;
78618;SDS011;67941;52.506;5.470;2023-07-09T04:13:39;3.92;;;2.58;;
78618;SDS011;67941;52.506;5.470;2023-07-09T04:16:09;3.42;;;1.77;;
78618;SDS011;67941;52.506;5.470;2023-07-09T04:18:38;4.55;;;2.35;;
78618;SDS011;67941;52.506;5.470;2023-07-09T04:21:10;4.20;;;2.17;;
78618;SDS011;67941;52.506;5.470;2023-07-09T04:23:39;5.70;;;2.47;;
78618;SDS011;67941;52.506;5.470;2023-07-09T04:26:08;3.38;;;1.75;;
78618;SDS011;67941;52.506;5.470;2023-07-09T04:28:41;3.35;;;1.83;;
78618;SDS011;67941;52.506;5.470;2023-07-09T04:31:10;4.57;;;2.38;;
78618;SDS011;67941;52.506;5.470;2023-07-09T04:33:39;2.72;;;1.70;;
78618;SDS011;67941;52.506;5.470;2023-07-09T04:36:11;4.90;;;1.90;;
78618;SDS011;67941;52.506;5.470;2023-07-09T04:38:40;4.68;;;2.30;;
78618;SDS011;67941;52.506;5.470;2023-07-09T04:41:09;3.15;;;1.88;;
78618;SDS011;67941;52.506;5.470;2023-07-09T04:43:38;4.28;;;2.13;;
78618;SDS011;67941;52.506;5.470;2023-07-09T04:46:07;3.25;;;2.03;;
78618;SDS011;67941;52.506;5.470;2023-07-09T04:48:35;5.47;;;2.58;;
78618;SDS011;67941;52.506;5.470;2023-07-09T04:51:04;5.15;;;1.50;;
78618;SDS011;67941;52.506;5.470;2023-07-09T04:53:36;4.47;;;2.22;;
78618;SDS011;67941;52.506;5.470;2023-07-09T04:56:06;4.60;;;2.90;;
78618;SDS011;67941;52.506;5.470;2023-07-09T04:58:35;3.67;;;2.60;;
78618;SDS011;67941;52.506;5.470;2023-07-09T05:01:04;3.22;;;1.52;;
78618;SDS011;67941;52.506;5.470;2023-07-09T05:03:33;3.70;;;1.70;;
78618;SDS011;67941;52.506;5.470;2023-07-09T05:06:03;2.85;;;1.67;;
78618;SDS011;67941;52.506;5.470;2023-07-09T05:08:32;3.63;;;1.88;;
78618;SDS011;67941;52.506;5.470;2023-07-09T05:11:03;3.60;;;2.22;;
78618;SDS011;67941;52.506;5.470;2023-07-09T05:13:32;4.53;;;2.05;;
78618;SDS011;67941;52.506;5.470;2023-07-09T05:16:01;5.88;;;2.90;;
78618;SDS011;67941;52.506;5.470;2023-07-09T05:18:30;4.07;;;2.35;;
78618;SDS011;67941;52.506;5.470;2023-07-09T05:20:59;6.63;;;2.85;;
78618;SDS011;67941;52.506;5.470;2023-07-09T05:23:28;6.95;;;2.95;;
78618;SDS011;67941;52.506;5.470;2023-07-09T05:25:57;6.43;;;2.80;;
78618;SDS011;67941;52.506;5.470;2023-07-09T05:28:30;6.20;;;3.42;;
78618;SDS011;67941;52.506;5.470;2023-07-09T05:31:00;7.13;;;3.85;;
78618;SDS011;67941;52.506;5.470;2023-07-09T05:33:29;6.72;;;2.65;;
78618;SDS011;67941;52.506;5.470;2023-07-09T05:35:58;7.55;;;3.55;;
78618;SDS011;67941;52.506;5.470;2023-07-09T05:38:27;6.00;;;3.13;;
78618;SDS011;67941;52.506;5.470;2023-07-09T05:40:59;3.50;;;2.10;;
78618;SDS011;67941;52.506;5.470;2023-07-09T05:43:32;4.05;;;2.53;;
78618;SDS011;67941;52.506;5.470;2023-07-09T05:46:01;6.28;;;2.90;;
78618;SDS011;67941;52.506;5.470;2023-07-09T05:48:30;5.75;;;3.33;;
78618;SDS011;67941;52.506;5.470;2023-07-09T05:50:59;5.38;;;3.30;;
78618;SDS011;67941;52.506;5.470;2023-07-09T05:53:28;6.47;;;3.00;;
78618;SDS011;67941;52.506;5.470;2023-07-09T05:55:58;5.10;;;3.13;;
78618;SDS011;67941;52.506;5.470;2023-07-09T05:58:27;5.45;;;2.95;;
78618;SDS011;67941;52.506;5.470;2023-07-09T06:00:59;4.57;;;2.58;;
78618;SDS011;67941;52.506;5.470;2023-07-09T06:03:28;4.78;;;2.58;;
78618;SDS011;67941;52.506;5.470;2023-07-09T06:05:59;5.53;;;3.00;;
78618;SDS011;67941;52.506;5.470;2023-07-09T06:08:28;7.50;;;2.92;;
78618;SDS011;67941;52.506;5.470;2023-07-09T06:10:58;5.88;;;3.33;;
78618;SDS011;67941;52.506;5.470;2023-07-09T06:13:30;7.60;;;4.10;;
78618;SDS011;67941;52.506;5.470;2023-07-09T06:16:02;4.72;;;2.78;;
78618;SDS011;67941;52.506;5.470;2023-07-09T06:21:00;5.35;;;2.17;;
78618;SDS011;67941;52.506;5.470;2023-07-09T06:23:32;6.10;;;3.10;;
78618;SDS011;67941;52.506;5.470;2023-07-09T06:26:01;4.22;;;2.33;;
78618;SDS011;67941;52.506;5.470;2023-07-09T06:28:30;7.40;;;3.10;;
78618;SDS011;67941;52.506;5.470;2023-07-09T06:31:02;5.35;;;2.60;;
78618;SDS011;67941;52.506;5.470;2023-07-09T06:33:31;6.68;;;3.65;;
78618;SDS011;67941;52.506;5.470;2023-07-09T06:36:00;5.30;;;2.72;;
78618;SDS011;67941;52.506;5.470;2023-07-09T06:38:30;6.65;;;2.90;;
78618;SDS011;67941;52.506;5.470;2023-07-09T06:40:59;7.07;;;3.90;;
78618;SDS011;67941;52.506;5.470;2023-07-09T06:43:27;6.38;;;2.97;;
78618;SDS011;67941;52.506;5.470;2023-07-09T06:45:57;8.05;;;3.47;;
78618;SDS011;67941;52.506;5.470;2023-07-09T06:48:30;6.38;;;3.67;;
78618;SDS011;67941;52.506;5.470;2023-07-09T06:53:28;4.70;;;2.45;;
78618;SDS011;67941;52.506;5.470;2023-07-09T06:55:57;4.65;;;2.80;;
78618;SDS011;67941;52.506;5.470;2023-07-09T06:58:27;5.68;;;3.17;;
78618;SDS011;67941;52.506;5.470;2023-07-09T07:01:00;7.30;;;2.90;;
78618;SDS011;67941;52.506;5.470;2023-07-09T07:06:01;4.05;;;2.10;;
78618;SDS011;67941;52.506;5.470;2023-07-09T07:08:31;4.82;;;2.70;;
78618;SDS011;67941;52.506;5.470;2023-07-09T07:11:03;5.03;;;2.70;;
78618;SDS011;67941;52.506;5.470;2023-07-09T07:13:33;7.55;;;3.22;;
78618;SDS011;67941;52.506;5.470;2023-07-09T07:16:04;5.05;;;2.88;;
78618;SDS011;67941;52.506;5.470;2023-07-09T07:18:37;6.35;;;2.83;;
78618;SDS011;67941;52.506;5.470;2023-07-09T07:21:06;5.82;;;2.95;;
78618;SDS011;67941;52.506;5.470;2023-07-09T07:23:35;5.53;;;3.38;;
78618;SDS011;67941;52.506;5.470;2023-07-09T07:26:04;7.35;;;2.92;;
78618;SDS011;67941;52.506;5.470;2023-07-09T07:28:34;6.40;;;3.45;;
78618;SDS011;67941;52.506;5.470;2023-07-09T07:31:03;6.85;;;3.58;;
78618;SDS011;67941;52.506;5.470;2023-07-09T07:33:33;7.28;;;4.00;;
78618;SDS011;67941;52.506;5.470;2023-07-09T07:36:06;7.38;;;4.82;;
78618;SDS011;67941;52.506;5.470;2023-07-09T07:38:35;7.00;;;4.53;;
78618;SDS011;67941;52.506;5.470;2023-07-09T07:41:04;8.30;;;5.13;;
78618;SDS011;67941;52.506;5.470;2023-07-09T07:43:33;10.20;;;6.18;;
78618;SDS011;67941;52.506;5.470;2023-07-09T07:46:02;11.13;;;5.93;;
78618;SDS011;67941;52.506;5.470;2023-07-09T07:48:31;9.60;;;6.00;;
78618;SDS011;67941;52.506;5.470;2023-07-09T07:51:02;9.45;;;6.00;;
78618;SDS011;67941;52.506;5.470;2023-07-09T07:53:32;12.63;;;6.55;;
78618;SDS011;67941;52.506;5.470;2023-07-09T07:56:01;10.27;;;6.60;;
78618;SDS011;67941;52.506;5.470;2023-07-09T07:58:31;10.80;;;6.35;;
78618;SDS011;67941;52.506;5.470;2023-07-09T08:01:00;9.93;;;6.88;;
78618;SDS011;67941;52.506;5.470;2023-07-09T08:03:29;9.90;;;5.95;;
78618;SDS011;67941;52.506;5.470;2023-07-09T08:05:58;10.40;;;6.95;;
78618;SDS011;67941;52.506;5.470;2023-07-09T08:08:29;12.15;;;8.15;;
78618;SDS011;67941;52.506;5.470;2023-07-09T08:11:02;12.40;;;7.85;;
78618;SDS011;67941;52.506;5.470;2023-07-09T08:13:33;10.52;;;5.60;;
78618;SDS011;67941;52.506;5.470;2023-07-09T08:16:03;12.40;;;6.70;;
78618;SDS011;67941;52.506;5.470;2023-07-09T08:18:33;12.25;;;7.28;;
78618;SDS011;67941;52.506;5.470;2023-07-09T08:21:02;10.68;;;6.53;;
78618;SDS011;67941;52.506;5.470;2023-07-09T08:23:52;10.82;;;6.45;;
78618;SDS011;67941;52.506;5.470;2023-07-09T08:26:21;11.00;;;6.25;;
78618;SDS011;67941;52.506;5.470;2023-07-09T08:28:51;12.82;;;7.45;;
78618;SDS011;67941;52.506;5.470;2023-07-09T08:31:21;12.07;;;8.30;;
78618;SDS011;67941;52.506;5.470;2023-07-09T08:33:50;11.82;;;7.25;;
78618;SDS011;67941;52.506;5.470;2023-07-09T08:36:19;9.50;;;6.97;;
78618;SDS011;67941;52.506;5.470;2023-07-09T08:38:48;11.02;;;6.03;;
78618;SDS011;67941;52.506;5.470;2023-07-09T08:41:24;10.35;;;6.50;;
78618;SDS011;67941;52.506;5.470;2023-07-09T08:44:05;9.27;;;6.07;;
78618;SDS011;67941;52.506;5.470;2023-07-09T08:46:54;9.57;;;6.13;;
78618;SDS011;67941;52.506;5.470;2023-07-09T08:49:33;8.95;;;5.70;;
78618;SDS011;67941;52.506;5.470;2023-07-09T08:52:09;8.45;;;5.00;;
78618;SDS011;67941;52.506;5.470;2023-07-09T08:54:43;10.35;;;6.05;;
78618;SDS011;67941;52.506;5.470;2023-07-09T08:57:17;8.70;;;5.00;;
78618;SDS011;67941;52.506;5.470;2023-07-09T08:59:50;7.13;;;3.78;;
78618;SDS011;67941;52.506;5.470;2023-07-09T09:02:28;7.63;;;3.70;;
78618;SDS011;67941;52.506;5.470;2023-07-09T09:05:02;6.10;;;3.88;;
78618;SDS011;67941;52.506;5.470;2023-07-09T09:07:36;5.10;;;3.10;;
78618;SDS011;67941;52.506;5.470;2023-07-09T09:10:10;5.70;;;3.45;;
78618;SDS011;67941;52.506;5.470;2023-07-09T09:12:46;6.10;;;3.63;;
78618;SDS011;67941;52.506;5.470;2023-07-09T09:15:27;5.55;;;3.30;;
78618;SDS011;67941;52.506;5.470;2023-07-09T09:17:58;6.03;;;3.65;;
78618;SDS011;67941;52.506;5.470;2023-07-09T09:20:38;5.20;;;2.80;;
78618;SDS011;67941;52.506;5.470;2023-07-09T09:23:12;7.80;;;3.22;;
78618;SDS011;67941;52.506;5.470;2023-07-09T09:25:44;5.68;;;3.20;;
78618;SDS011;67941;52.506;5.470;2023-07-09T09:28:19;7.15;;;3.45;;
78618;SDS011;67941;52.506;5.470;2023-07-09T09:30:50;6.40;;;3.40;;
78618;SDS011;67941;52.506;5.470;2023-07-09T09:33:19;7.25;;;3.65;;
78618;SDS011;67941;52.506;5.470;2023-07-09T09:35:48;7.18;;;3.72;;
78618;SDS011;67941;52.506;5.470;2023-07-09T09:38:19;5.43;;;3.00;;
78618;SDS011;67941;52.506;5.470;2023-07-09T09:40:49;4.88;;;3.03;;
78618;SDS011;67941;52.506;5.470;2023-07-09T09:43:21;6.03;;;2.88;;
78618;SDS011;67941;52.506;5.470;2023-07-09T09:45:51;5.95;;;3.13;;
78618;SDS011;67941;52.506;5.470;2023-07-09T09:48:26;4.72;;;2.40;;
78618;SDS011;67941;52.506;5.470;2023-07-09T09:50:57;4.30;;;1.60;;
78618;SDS011;67941;52.506;5.470;2023-07-09T09:53:29;5.13;;;2.33;;
78618;SDS011;67941;52.506;5.470;2023-07-09T09:56:03;4.38;;;2.42;;
78618;SDS011;67941;52.506;5.470;2023-07-09T09:58:39;5.43;;;2.38;;
78618;SDS011;67941;52.506;5.470;2023-07-09T10:01:11;4.18;;;2.58;;
78618;SDS011;67941;52.506;5.470;2023-07-09T10:03:42;5.82;;;2.35;;
78618;SDS011;67941;52.506;5.470;2023-07-09T10:06:14;5.72;;;2.80;;
78618;SDS011;67941;52.506;5.470;2023-07-09T10:08:49;5.00;;;2.95;;
78618;SDS011;67941;52.506;5.470;2023-07-09T10:11:27;5.90;;;3.00;;
78618;SDS011;67941;52.506;5.470;2023-07-09T10:14:03;5.82;;;3.08;;
78618;SDS011;67941;52.506;5.470;2023-07-09T10:16:51;4.30;;;2.70;;
78618;SDS011;67941;52.506;5.470;2023-07-09T10:19:30;5.30;;;3.13;;
78618;SDS011;67941;52.506;5.470;2023-07-09T10:22:06;5.93;;;3.03;;
78618;SDS011;67941;52.506;5.470;2023-07-09T10:24:44;7.03;;;4.22;;
78618;SDS011;67941;52.506;5.470;2023-07-09T10:27:22;6.47;;;4.35;;
78618;SDS011;67941;52.506;5.470;2023-07-09T10:30:08;7.00;;;3.60;;
78618;SDS011;67941;52.506;5.470;2023-07-09T10:32:47;6.38;;;3.67;;
78618;SDS011;67941;52.506;5.470;2023-07-09T10:35:25;6.65;;;3.80;;
78618;SDS011;67941;52.506;5.470;2023-07-09T10:38:04;6.78;;;3.75;;
78618;SDS011;67941;52.506;5.470;2023-07-09T10:40:43;6.10;;;3.30;;
78618;SDS011;67941;52.506;5.470;2023-07-09T10:43:15;5.75;;;3.55;;
78618;SDS011;67941;52.506;5.470;2023-07-09T10:45:52;5.15;;;3.08;;
78618;SDS011;67941;52.506;5.470;2023-07-09T10:48:29;5.07;;;3.20;;
78618;SDS011;67941;52.506;5.470;2023-07-09T10:51:02;7.10;;;3.40;;
78618;SDS011;67941;52.506;5.470;2023-07-09T10:53:33;4.85;;;2.67;;
78618;SDS011;67941;52.506;5.470;2023-07-09T10:56:09;5.32;;;3.00;;
78618;SDS011;67941;52.506;5.470;2023-07-09T10:58:41;4.57;;;2.95;;
78618;SDS011;67941;52.506;5.470;2023-07-09T11:01:21;6.15;;;3.90;;
78618;SDS011;67941;52.506;5.470;2023-07-09T11:03:59;5.43;;;3.50;;
78618;SDS011;67941;52.506;5.470;2023-07-09T11:06:32;7.60;;;4.38;;
78618;SDS011;67941;52.506;5.470;2023-07-09T11:09:06;8.32;;;4.97;;
78618;SDS011;67941;52.506;5.470;2023-07-09T11:11:43;7.03;;;3.58;;
78618;SDS011;67941;52.506;5.470;2023-07-09T11:14:19;5.68;;;2.95;;
78618;SDS011;67941;52.506;5.470;2023-07-09T11:16:57;4.22;;;2.70;;
78618;SDS011;67941;52.506;5.470;2023-07-09T11:19:27;5.35;;;2.67;;
78618;SDS011;67941;52.506;5.470;2023-07-09T11:21:57;4.90;;;2.40;;
78618;SDS011;67941;52.506;5.470;2023-07-09T11:24:30;4.03;;;2.58;;
78618;SDS011;67941;52.506;5.470;2023-07-09T11:27:01;4.18;;;2.40;;
78618;SDS011;67941;52.506;5.470;2023-07-09T11:29:30;7.00;;;3.13;;
78618;SDS011;67941;52.506;5.470;2023-07-09T11:32:09;5.15;;;3.13;;
78618;SDS011;67941;52.506;5.470;2023-07-09T11:34:44;5.15;;;2.63;;
78618;SDS011;67941;52.506;5.470;2023-07-09T11:37:15;3.85;;;2.25;;
78618;SDS011;67941;52.506;5.470;2023-07-09T11:39:45;3.42;;;2.20;;
78618;SDS011;67941;52.506;5.470;2023-07-09T11:42:26;4.38;;;2.53;;
78618;SDS011;67941;52.506;5.470;2023-07-09T11:44:58;3.92;;;2.10;;
78618;SDS011;67941;52.506;5.470;2023-07-09T11:47:36;3.78;;;2.17;;
78618;SDS011;67941;52.506;5.470;2023-07-09T11:50:13;5.07;;;2.63;;
78618;SDS011;67941;52.506;5.470;2023-07-09T11:52:51;5.05;;;2.90;;
78618;SDS011;67941;52.506;5.470;2023-07-09T11:55:25;5.13;;;3.08;;
78618;SDS011;67941;52.506;5.470;2023-07-09T11:57:57;5.65;;;2.95;;
78618;SDS011;67941;52.506;5.470;2023-07-09T12:00:28;5.25;;;2.60;;
78618;SDS011;67941;52.506;5.470;2023-07-09T12:03:05;3.90;;;2.53;;
78618;SDS011;67941;52.506;5.470;2023-07-09T12:05:35;4.97;;;2.67;;
78618;SDS011;67941;52.506;5.470;2023-07-09T12:08:06;5.57;;;2.70;;
78618;SDS011;67941;52.506;5.470;2023-07-09T12:10:36;4.25;;;2.53;;
78618;SDS011;67941;52.506;5.470;2023-07-09T12:18:20;3.53;;;1.88;;
78618;SDS011;67941;52.506;5.470;2023-07-09T12:20:49;3.75;;;2.08;;
78618;SDS011;67941;52.506;5.470;2023-07-09T12:23:21;2.85;;;2.03;;
78618;SDS011;67941;52.506;5.470;2023-07-09T12:25:53;4.93;;;2.15;;
78618;SDS011;67941;52.506;5.470;2023-07-09T12:28:22;2.75;;;1.63;;
78618;SDS011;67941;52.506;5.470;2023-07-09T12:30:52;4.28;;;2.72;;
78618;SDS011;67941;52.506;5.470;2023-07-09T12:33:24;3.83;;;2.65;;
78618;SDS011;67941;52.506;5.470;2023-07-09T12:35:55;4.82;;;2.38;;
78618;SDS011;67941;52.506;5.470;2023-07-09T12:38:26;4.47;;;2.40;;
78618;SDS011;67941;52.506;5.470;2023-07-09T12:40:59;4.18;;;2.28;;
78618;SDS011;67941;52.506;5.470;2023-07-09T12:43:30;3.47;;;1.88;;
78618;SDS011;67941;52.506;5.470;2023-07-09T12:45:59;4.65;;;2.10;;
78618;SDS011;67941;52.506;5.470;2023-07-09T12:48:31;4.30;;;2.10;;
78618;SDS011;67941;52.506;5.470;2023-07-09T12:51:00;5.22;;;2.75;;
78618;SDS011;67941;52.506;5.470;2023-07-09T12:53:35;4.60;;;2.17;;
78618;SDS011;67941;52.506;5.470;2023-07-09T12:56:23;3.92;;;1.88;;
78618;SDS011;67941;52.506;5.470;2023-07-09T12:58:55;3.40;;;2.08;;
78618;SDS011;67941;52.506;5.470;2023-07-09T13:01:25;2.75;;;1.75;;
78618;SDS011;67941;52.506;5.470;2023-07-09T13:03:56;2.55;;;1.35;;
78618;SDS011;67941;52.506;5.470;2023-07-09T13:06:26;2.65;;;1.55;;
78618;SDS011;67941;52.506;5.470;2023-07-09T13:08:57;2.33;;;1.42;;
78618;SDS011;67941;52.506;5.470;2023-07-09T13:11:31;2.25;;;1.23;;
78618;SDS011;67941;52.506;5.470;2023-07-09T13:14:03;1.52;;;1.05;;
78618;SDS011;67941;52.506;5.470;2023-07-09T13:16:38;2.47;;;1.45;;
78618;SDS011;67941;52.506;5.470;2023-07-09T13:19:09;3.30;;;1.58;;
78618;SDS011;67941;52.506;5.470;2023-07-09T13:21:39;3.08;;;1.55;;
78618;SDS011;67941;52.506;5.470;2023-07-09T13:24:11;2.42;;;1.23;;
78618;SDS011;67941;52.506;5.470;2023-07-09T13:26:44;1.90;;;1.38;;
78618;SDS011;67941;52.506;5.470;2023-07-09T13:29:31;2.72;;;1.63;;
78618;SDS011;67941;52.506;5.470;2023-07-09T13:34:31;2.70;;;1.65;;
78618;SDS011;67941;52.506;5.470;2023-07-09T13:37:01;2.17;;;1.15;;
78618;SDS011;67941;52.506;5.470;2023-07-09T13:39:31;2.22;;;1.48;;
78618;SDS011;67941;52.506;5.470;2023-07-09T13:42:00;3.33;;;1.35;;
78618;SDS011;67941;52.506;5.470;2023-07-09T13:44:29;3.20;;;1.10;;
78618;SDS011;67941;52.506;5.470;2023-07-09T13:46:58;2.60;;;1.83;;
78618;SDS011;67941;52.506;5.470;2023-07-09T13:49:27;3.10;;;1.60;;
78618;SDS011;67941;52.506;5.470;2023-07-09T13:52:00;3.10;;;1.50;;
78618;SDS011;67941;52.506;5.470;2023-07-09T13:54:32;3.05;;;1.80;;
78618;SDS011;67941;52.506;5.470;2023-07-09T13:57:04;3.00;;;1.65;;
78618;SDS011;67941;52.506;5.470;2023-07-09T13:59:34;4.57;;;1.58;;
78618;SDS011;67941;52.506;5.470;2023-07-09T14:02:07;3.15;;;1.58;;
78618;SDS011;67941;52.506;5.470;2023-07-09T14:04:57;2.88;;;1.30;;
78618;SDS011;67941;52.506;5.470;2023-07-09T14:07:28;4.18;;;1.30;;
78618;SDS011;67941;52.506;5.470;2023-07-09T14:09:58;1.67;;;0.90;;
78618;SDS011;67941;52.506;5.470;2023-07-09T14:12:28;2.42;;;1.08;;
78618;SDS011;67941;52.506;5.470;2023-07-09T14:14:58;2.58;;;1.45;;
78618;SDS011;67941;52.506;5.470;2023-07-09T14:20:01;4.55;;;1.40;;
78618;SDS011;67941;52.506;5.470;2023-07-09T14:22:31;6.07;;;1.83;;
78618;SDS011;67941;52.506;5.470;2023-07-09T14:25:02;4.10;;;1.33;;
78618;SDS011;67941;52.506;5.470;2023-07-09T14:27:33;3.15;;;1.45;;
78618;SDS011;67941;52.506;5.470;2023-07-09T14:30:02;3.83;;;1.38;;
78618;SDS011;67941;52.506;5.470;2023-07-09T14:32:32;5.30;;;1.67;;
78618;SDS011;67941;52.506;5.470;2023-07-09T14:35:10;5.93;;;2.25;;
78618;SDS011;67941;52.506;5.470;2023-07-09T14:37:40;4.07;;;1.70;;
78618;SDS011;67941;52.506;5.470;2023-07-09T14:40:13;3.30;;;1.52;;
78618;SDS011;67941;52.506;5.470;2023-07-09T14:42:43;3.78;;;1.23;;
78618;SDS011;67941;52.506;5.470;2023-07-09T14:45:16;5.30;;;1.67;;
78618;SDS011;67941;52.506;5.470;2023-07-09T14:47:47;2.88;;;1.02;;
78618;SDS011;67941;52.506;5.470;2023-07-09T14:50:19;4.60;;;1.30;;
78618;SDS011;67941;52.506;5.470;2023-07-09T14:52:49;4.57;;;1.80;;
78618;SDS011;67941;52.506;5.470;2023-07-09T14:55:19;2.58;;;1.13;;
78618;SDS011;67941;52.506;5.470;2023-07-09T15:00:19;3.00;;;1.10;;
78618;SDS011;67941;52.506;5.470;2023-07-09T15:02:51;5.35;;;1.63;;
78618;SDS011;67941;52.506;5.470;2023-07-09T15:05:24;3.35;;;1.25;;
78618;SDS011;67941;52.506;5.470;2023-07-09T15:07:55;4.25;;;1.58;;
78618;SDS011;67941;52.506;5.470;2023-07-09T15:10:24;3.15;;;1.55;;
78618;SDS011;67941;52.506;5.470;2023-07-09T15:12:54;3.38;;;2.15;;
78618;SDS011;67941;52.506;5.470;2023-07-09T15:15:25;5.07;;;2.83;;
78618;SDS011;67941;52.506;5.470;2023-07-09T15:17:55;9.32;;;2.53;;
78618;SDS011;67941;52.506;5.470;2023-07-09T15:20:29;6.40;;;2.13;;
78618;SDS011;67941;52.506;5.470;2023-07-09T15:22:59;6.85;;;3.55;;
78618;SDS011;67941;52.506;5.470;2023-07-09T15:25:28;7.63;;;3.33;;
78618;SDS011;67941;52.506;5.470;2023-07-09T15:27:58;5.78;;;2.88;;
78618;SDS011;67941;52.506;5.470;2023-07-09T15:30:28;6.03;;;2.85;;
78618;SDS011;67941;52.506;5.470;2023-07-09T15:32:59;4.70;;;2.40;;
78618;SDS011;67941;52.506;5.470;2023-07-09T15:35:32;3.53;;;1.52;;